sensor_id;sensor_type;location;lat;lon;timestamp;P1;durP1;ratioP1;P2;durP2;ratioP2
61685;SDS011;47592;45.904;8.978;2024-02-23T00:02:06;4.47;;;1.60;;
61685;SDS011;47592;45.904;8.978;2024-02-23T00:04:32;3.80;;;1.50;;
61685;SDS011;47592;45.904;8.978;2024-02-23T00:07:00;4.13;;;1.40;;
61685;SDS011;47592;45.904;8.978;2024-02-23T00:09:27;4.10;;;1.00;;
61685;SDS011;47592;45.904;8.978;2024-02-23T00:11:53;4.05;;;1.25;;
61685;SDS011;47592;45.904;8.978;2024-02-23T00:14:20;3.15;;;1.00;;
61685;SDS011;47592;45.904;8.978;2024-02-23T00:16:46;3.53;;;1.00;;
61685;SDS011;47592;45.904;8.978;2024-02-23T00:19:11;2.30;;;0.82;;
61685;SDS011;47592;45.904;8.978;2024-02-23T00:21:39;2.88;;;0.90;;
61685;SDS011;47592;45.904;8.978;2024-02-23T00:24:05;2.92;;;1.10;;
61685;SDS011;47592;45.904;8.978;2024-02-23T00:26:34;3.10;;;1.10;;
61685;SDS011;47592;45.904;8.978;2024-02-23T00:28:59;2.50;;;0.88;;
61685;SDS011;47592;45.904;8.978;2024-02-23T00:31:25;2.88;;;0.85;;
61685;SDS011;47592;45.904;8.978;2024-02-23T00:33:50;2.45;;;0.50;;
61685;SDS011;47592;45.904;8.978;2024-02-23T00:36:16;2.20;;;0.77;;
61685;SDS011;47592;45.904;8.978;2024-02-23T00:38:41;2.05;;;0.60;;
61685;SDS011;47592;45.904;8.978;2024-02-23T00:41:07;1.88;;;0.52;;
61685;SDS011;47592;45.904;8.978;2024-02-23T00:43:39;2.50;;;0.80;;
61685;SDS011;47592;45.904;8.978;2024-02-23T00:46:05;2.35;;;0.73;;
61685;SDS011;47592;45.904;8.978;2024-02-23T00:48:33;1.52;;;0.55;;
61685;SDS011;47592;45.904;8.978;2024-02-23T00:51:02;1.83;;;0.40;;
61685;SDS011;47592;45.904;8.978;2024-02-23T00:53:28;2.00;;;0.70;;
61685;SDS011;47592;45.904;8.978;2024-02-23T00:55:54;1.95;;;0.70;;
61685;SDS011;47592;45.904;8.978;2024-02-23T00:58:19;2.40;;;0.70;;
61685;SDS011;47592;45.904;8.978;2024-02-23T01:00:47;1.73;;;0.57;;
61685;SDS011;47592;45.904;8.978;2024-02-23T01:03:12;2.42;;;0.80;;
61685;SDS011;47592;45.904;8.978;2024-02-23T01:05:38;3.30;;;0.90;;
61685;SDS011;47592;45.904;8.978;2024-02-23T01:08:04;2.80;;;0.85;;
61685;SDS011;47592;45.904;8.978;2024-02-23T01:10:30;2.50;;;0.60;;
61685;SDS011;47592;45.904;8.978;2024-02-23T01:12:56;2.78;;;0.88;;
61685;SDS011;47592;45.904;8.978;2024-02-23T01:15:22;3.40;;;1.00;;
61685;SDS011;47592;45.904;8.978;2024-02-23T01:17:47;4.10;;;1.40;;
61685;SDS011;47592;45.904;8.978;2024-02-23T01:20:15;3.67;;;1.10;;
61685;SDS011;47592;45.904;8.978;2024-02-23T01:22:40;2.80;;;0.93;;
61685;SDS011;47592;45.904;8.978;2024-02-23T01:25:06;2.45;;;0.73;;
61685;SDS011;47592;45.904;8.978;2024-02-23T01:27:31;3.50;;;0.80;;
61685;SDS011;47592;45.904;8.978;2024-02-23T01:29:59;3.20;;;1.00;;
61685;SDS011;47592;45.904;8.978;2024-02-23T01:32:25;4.15;;;0.95;;
61685;SDS011;47592;45.904;8.978;2024-02-23T01:34:50;4.20;;;1.00;;
61685;SDS011;47592;45.904;8.978;2024-02-23T01:37:18;3.55;;;1.23;;
61685;SDS011;47592;45.904;8.978;2024-02-23T01:39:46;3.20;;;1.00;;
61685;SDS011;47592;45.904;8.978;2024-02-23T01:42:14;3.13;;;0.90;;
61685;SDS011;47592;45.904;8.978;2024-02-23T01:44:42;2.67;;;0.80;;
61685;SDS011;47592;45.904;8.978;2024-02-23T01:47:07;2.63;;;0.80;;
61685;SDS011;47592;45.904;8.978;2024-02-23T01:49:33;2.60;;;0.70;;
61685;SDS011;47592;45.904;8.978;2024-02-23T01:52:02;2.22;;;0.70;;
61685;SDS011;47592;45.904;8.978;2024-02-23T01:54:28;2.80;;;0.75;;
61685;SDS011;47592;45.904;8.978;2024-02-23T01:56:57;1.50;;;0.60;;
61685;SDS011;47592;45.904;8.978;2024-02-23T01:59:23;4.05;;;0.70;;
61685;SDS011;47592;45.904;8.978;2024-02-23T02:01:50;1.73;;;0.60;;
61685;SDS011;47592;45.904;8.978;2024-02-23T02:04:15;1.50;;;0.50;;
61685;SDS011;47592;45.904;8.978;2024-02-23T02:06:44;2.67;;;0.80;;
61685;SDS011;47592;45.904;8.978;2024-02-23T02:09:10;2.08;;;0.63;;
61685;SDS011;47592;45.904;8.978;2024-02-23T02:11:44;3.15;;;0.80;;
61685;SDS011;47592;45.904;8.978;2024-02-23T02:14:10;2.70;;;0.70;;
61685;SDS011;47592;45.904;8.978;2024-02-23T02:16:35;2.92;;;0.80;;
61685;SDS011;47592;45.904;8.978;2024-02-23T02:19:03;2.40;;;0.77;;
61685;SDS011;47592;45.904;8.978;2024-02-23T02:21:29;2.05;;;0.60;;
61685;SDS011;47592;45.904;8.978;2024-02-23T02:23:54;2.72;;;0.93;;
61685;SDS011;47592;45.904;8.978;2024-02-23T02:26:27;1.08;;;0.50;;
61685;SDS011;47592;45.904;8.978;2024-02-23T02:28:56;0.63;;;0.30;;
61685;SDS011;47592;45.904;8.978;2024-02-23T02:31:21;0.52;;;0.35;;
61685;SDS011;47592;45.904;8.978;2024-02-23T02:33:49;0.70;;;0.30;;
61685;SDS011;47592;45.904;8.978;2024-02-23T02:36:14;1.05;;;0.45;;
61685;SDS011;47592;45.904;8.978;2024-02-23T02:38:40;1.67;;;0.50;;
61685;SDS011;47592;45.904;8.978;2024-02-23T02:41:05;2.35;;;0.63;;
61685;SDS011;47592;45.904;8.978;2024-02-23T02:43:31;1.65;;;0.50;;
61685;SDS011;47592;45.904;8.978;2024-02-23T02:45:57;1.65;;;0.52;;
61685;SDS011;47592;45.904;8.978;2024-02-23T02:48:22;1.88;;;0.60;;
61685;SDS011;47592;45.904;8.978;2024-02-23T02:50:48;2.35;;;0.60;;
61685;SDS011;47592;45.904;8.978;2024-02-23T02:53:14;1.52;;;0.57;;
61685;SDS011;47592;45.904;8.978;2024-02-23T02:55:41;1.38;;;0.40;;
61685;SDS011;47592;45.904;8.978;2024-02-23T02:58:07;1.50;;;0.35;;
61685;SDS011;47592;45.904;8.978;2024-02-23T03:00:36;0.95;;;0.40;;
61685;SDS011;47592;45.904;8.978;2024-02-23T03:03:01;0.93;;;0.30;;
61685;SDS011;47592;45.904;8.978;2024-02-23T03:05:26;0.50;;;0.20;;
61685;SDS011;47592;45.904;8.978;2024-02-23T03:07:52;1.45;;;0.40;;
61685;SDS011;47592;45.904;8.978;2024-02-23T03:10:17;0.55;;;0.30;;
61685;SDS011;47592;45.904;8.978;2024-02-23T03:12:45;0.10;;;0.10;;
61685;SDS011;47592;45.904;8.978;2024-02-23T03:15:10;0.82;;;0.30;;
61685;SDS011;47592;45.904;8.978;2024-02-23T03:17:36;0.95;;;0.30;;
61685;SDS011;47592;45.904;8.978;2024-02-23T03:20:02;1.50;;;0.30;;
61685;SDS011;47592;45.904;8.978;2024-02-23T03:22:30;0.40;;;0.20;;
61685;SDS011;47592;45.904;8.978;2024-02-23T03:24:58;2.00;;;0.45;;
61685;SDS011;47592;45.904;8.978;2024-02-23T03:27:27;1.42;;;0.30;;
61685;SDS011;47592;45.904;8.978;2024-02-23T03:29:53;0.88;;;0.30;;
61685;SDS011;47592;45.904;8.978;2024-02-23T03:32:20;1.25;;;0.40;;
61685;SDS011;47592;45.904;8.978;2024-02-23T03:34:48;2.90;;;0.40;;
61685;SDS011;47592;45.904;8.978;2024-02-23T03:37:14;1.83;;;0.52;;
61685;SDS011;47592;45.904;8.978;2024-02-23T03:39:41;0.82;;;0.30;;
61685;SDS011;47592;45.904;8.978;2024-02-23T03:42:07;1.67;;;0.30;;
61685;SDS011;47592;45.904;8.978;2024-02-23T03:44:32;1.65;;;0.30;;
61685;SDS011;47592;45.904;8.978;2024-02-23T03:46:57;0.63;;;0.20;;
61685;SDS011;47592;45.904;8.978;2024-02-23T03:49:25;0.40;;;0.20;;
61685;SDS011;47592;45.904;8.978;2024-02-23T03:51:53;0.10;;;0.10;;
61685;SDS011;47592;45.904;8.978;2024-02-23T03:54:23;1.33;;;0.30;;
61685;SDS011;47592;45.904;8.978;2024-02-23T03:56:51;0.75;;;0.30;;
61685;SDS011;47592;45.904;8.978;2024-02-23T03:59:16;0.73;;;0.30;;
61685;SDS011;47592;45.904;8.978;2024-02-23T04:01:44;1.52;;;0.38;;
61685;SDS011;47592;45.904;8.978;2024-02-23T04:04:09;2.13;;;0.30;;
61685;SDS011;47592;45.904;8.978;2024-02-23T04:06:35;2.60;;;0.45;;
61685;SDS011;47592;45.904;8.978;2024-02-23T04:09:01;0.75;;;0.30;;
61685;SDS011;47592;45.904;8.978;2024-02-23T04:11:26;1.15;;;0.50;;
61685;SDS011;47592;45.904;8.978;2024-02-23T04:13:52;0.63;;;0.20;;
61685;SDS011;47592;45.904;8.978;2024-02-23T04:16:22;1.55;;;0.40;;
61685;SDS011;47592;45.904;8.978;2024-02-23T04:18:48;1.75;;;0.40;;
61685;SDS011;47592;45.904;8.978;2024-02-23T04:21:14;1.77;;;0.38;;
61685;SDS011;47592;45.904;8.978;2024-02-23T04:23:40;1.80;;;0.43;;
61685;SDS011;47592;45.904;8.978;2024-02-23T04:26:05;1.33;;;0.30;;
61685;SDS011;47592;45.904;8.978;2024-02-23T04:28:33;2.45;;;0.50;;
61685;SDS011;47592;45.904;8.978;2024-02-23T04:30:59;1.45;;;0.40;;
61685;SDS011;47592;45.904;8.978;2024-02-23T04:33:25;1.08;;;0.30;;
61685;SDS011;47592;45.904;8.978;2024-02-23T04:35:51;1.65;;;0.30;;
61685;SDS011;47592;45.904;8.978;2024-02-23T04:38:16;0.60;;;0.20;;
61685;SDS011;47592;45.904;8.978;2024-02-23T04:40:44;0.57;;;0.20;;
61685;SDS011;47592;45.904;8.978;2024-02-23T04:43:09;1.63;;;0.38;;
61685;SDS011;47592;45.904;8.978;2024-02-23T04:45:35;1.58;;;0.30;;
61685;SDS011;47592;45.904;8.978;2024-02-23T04:48:05;0.73;;;0.30;;
61685;SDS011;47592;45.904;8.978;2024-02-23T04:50:33;1.10;;;0.32;;
61685;SDS011;47592;45.904;8.978;2024-02-23T04:52:59;2.50;;;0.45;;
61685;SDS011;47592;45.904;8.978;2024-02-23T04:55:24;1.55;;;0.47;;
61685;SDS011;47592;45.904;8.978;2024-02-23T04:57:50;1.52;;;0.50;;
61685;SDS011;47592;45.904;8.978;2024-02-23T05:00:20;0.80;;;0.30;;
61685;SDS011;47592;45.904;8.978;2024-02-23T05:02:45;1.05;;;0.30;;
61685;SDS011;47592;45.904;8.978;2024-02-23T05:05:11;3.33;;;0.50;;
61685;SDS011;47592;45.904;8.978;2024-02-23T05:07:37;1.95;;;0.50;;
61685;SDS011;47592;45.904;8.978;2024-02-23T05:10:03;1.27;;;0.40;;
61685;SDS011;47592;45.904;8.978;2024-02-23T05:12:29;2.13;;;0.40;;
61685;SDS011;47592;45.904;8.978;2024-02-23T05:14:54;2.00;;;0.50;;
61685;SDS011;47592;45.904;8.978;2024-02-23T05:17:19;1.92;;;0.50;;
61685;SDS011;47592;45.904;8.978;2024-02-23T05:19:48;1.65;;;0.50;;
61685;SDS011;47592;45.904;8.978;2024-02-23T05:22:13;1.08;;;0.43;;
61685;SDS011;47592;45.904;8.978;2024-02-23T05:24:39;2.85;;;0.40;;
61685;SDS011;47592;45.904;8.978;2024-02-23T05:27:04;1.40;;;0.30;;
61685;SDS011;47592;45.904;8.978;2024-02-23T05:29:30;2.03;;;0.30;;
61685;SDS011;47592;45.904;8.978;2024-02-23T05:31:55;2.53;;;0.50;;
61685;SDS011;47592;45.904;8.978;2024-02-23T05:34:20;1.48;;;0.50;;
61685;SDS011;47592;45.904;8.978;2024-02-23T05:36:48;1.02;;;0.40;;
61685;SDS011;47592;45.904;8.978;2024-02-23T05:39:15;1.50;;;0.30;;
61685;SDS011;47592;45.904;8.978;2024-02-23T05:41:41;0.93;;;0.30;;
61685;SDS011;47592;45.904;8.978;2024-02-23T05:44:07;1.55;;;0.30;;
61685;SDS011;47592;45.904;8.978;2024-02-23T05:46:35;0.88;;;0.30;;
61685;SDS011;47592;45.904;8.978;2024-02-23T05:49:01;0.77;;;0.30;;
61685;SDS011;47592;45.904;8.978;2024-02-23T05:51:28;0.95;;;0.30;;
61685;SDS011;47592;45.904;8.978;2024-02-23T05:53:59;1.38;;;0.22;;
61685;SDS011;47592;45.904;8.978;2024-02-23T05:56:27;1.13;;;0.28;;
61685;SDS011;47592;45.904;8.978;2024-02-23T05:58:52;0.40;;;0.20;;
61685;SDS011;47592;45.904;8.978;2024-02-23T06:01:18;1.58;;;0.30;;
61685;SDS011;47592;45.904;8.978;2024-02-23T06:03:48;0.90;;;0.30;;
61685;SDS011;47592;45.904;8.978;2024-02-23T06:06:16;1.17;;;0.30;;
61685;SDS011;47592;45.904;8.978;2024-02-23T06:08:41;0.30;;;0.20;;
61685;SDS011;47592;45.904;8.978;2024-02-23T06:11:09;0.73;;;0.30;;
61685;SDS011;47592;45.904;8.978;2024-02-23T06:13:37;1.17;;;0.40;;
61685;SDS011;47592;45.904;8.978;2024-02-23T06:16:09;0.68;;;0.25;;
61685;SDS011;47592;45.904;8.978;2024-02-23T06:21:00;0.68;;;0.30;;
61685;SDS011;47592;45.904;8.978;2024-02-23T06:23:27;0.63;;;0.28;;
61685;SDS011;47592;45.904;8.978;2024-02-23T06:25:52;0.98;;;0.30;;
61685;SDS011;47592;45.904;8.978;2024-02-23T06:28:18;1.17;;;0.50;;
61685;SDS011;47592;45.904;8.978;2024-02-23T06:30:45;0.98;;;0.40;;
61685;SDS011;47592;45.904;8.978;2024-02-23T06:33:11;1.63;;;0.38;;
61685;SDS011;47592;45.904;8.978;2024-02-23T06:35:36;0.95;;;0.30;;
61685;SDS011;47592;45.904;8.978;2024-02-23T06:38:02;2.10;;;0.47;;
61685;SDS011;47592;45.904;8.978;2024-02-23T06:40:27;1.25;;;0.40;;
61685;SDS011;47592;45.904;8.978;2024-02-23T06:42:55;1.40;;;0.60;;
61685;SDS011;47592;45.904;8.978;2024-02-23T06:45:20;1.67;;;0.60;;
61685;SDS011;47592;45.904;8.978;2024-02-23T06:47:53;1.33;;;0.50;;
61685;SDS011;47592;45.904;8.978;2024-02-23T06:50:22;0.47;;;0.20;;
61685;SDS011;47592;45.904;8.978;2024-02-23T06:52:49;2.05;;;0.68;;
61685;SDS011;47592;45.904;8.978;2024-02-23T06:55:15;1.25;;;0.40;;
61685;SDS011;47592;45.904;8.978;2024-02-23T06:57:42;0.47;;;0.20;;
61685;SDS011;47592;45.904;8.978;2024-02-23T07:00:12;1.58;;;0.30;;
61685;SDS011;47592;45.904;8.978;2024-02-23T07:02:38;0.82;;;0.40;;
61685;SDS011;47592;45.904;8.978;2024-02-23T07:05:04;1.50;;;0.68;;
61685;SDS011;47592;45.904;8.978;2024-02-23T07:07:30;1.55;;;0.47;;
61685;SDS011;47592;45.904;8.978;2024-02-23T07:09:58;1.10;;;0.40;;
61685;SDS011;47592;45.904;8.978;2024-02-23T07:12:25;1.00;;;0.40;;
61685;SDS011;47592;45.904;8.978;2024-02-23T07:14:57;1.10;;;0.55;;
61685;SDS011;47592;45.904;8.978;2024-02-23T07:17:22;0.52;;;0.32;;
61685;SDS011;47592;45.904;8.978;2024-02-23T07:19:48;1.63;;;0.38;;
61685;SDS011;47592;45.904;8.978;2024-02-23T07:22:15;1.98;;;0.40;;
61685;SDS011;47592;45.904;8.978;2024-02-23T07:24:43;1.33;;;0.40;;
61685;SDS011;47592;45.904;8.978;2024-02-23T07:27:08;2.72;;;0.68;;
61685;SDS011;47592;45.904;8.978;2024-02-23T07:29:34;1.35;;;0.47;;
61685;SDS011;47592;45.904;8.978;2024-02-23T07:32:00;1.25;;;0.40;;
61685;SDS011;47592;45.904;8.978;2024-02-23T07:34:25;5.45;;;0.60;;
61685;SDS011;47592;45.904;8.978;2024-02-23T07:36:54;1.20;;;0.40;;
61685;SDS011;47592;45.904;8.978;2024-02-23T07:39:21;0.93;;;0.30;;
61685;SDS011;47592;45.904;8.978;2024-02-23T07:41:49;4.20;;;0.40;;
61685;SDS011;47592;45.904;8.978;2024-02-23T07:44:17;2.22;;;0.47;;
61685;SDS011;47592;45.904;8.978;2024-02-23T07:46:45;1.58;;;0.50;;
61685;SDS011;47592;45.904;8.978;2024-02-23T07:49:12;1.00;;;0.43;;
61685;SDS011;47592;45.904;8.978;2024-02-23T07:51:38;0.98;;;0.30;;
61685;SDS011;47592;45.904;8.978;2024-02-23T07:54:06;3.97;;;0.60;;
61685;SDS011;47592;45.904;8.978;2024-02-23T07:56:33;1.67;;;0.50;;
61685;SDS011;47592;45.904;8.978;2024-02-23T07:58:59;1.10;;;0.43;;
61685;SDS011;47592;45.904;8.978;2024-02-23T08:01:28;1.95;;;0.43;;
61685;SDS011;47592;45.904;8.978;2024-02-23T08:03:53;3.05;;;0.50;;
61685;SDS011;47592;45.904;8.978;2024-02-23T08:06:19;2.08;;;0.50;;
61685;SDS011;47592;45.904;8.978;2024-02-23T08:08:47;2.40;;;0.52;;
61685;SDS011;47592;45.904;8.978;2024-02-23T08:11:12;2.97;;;0.50;;
61685;SDS011;47592;45.904;8.978;2024-02-23T08:13:39;1.77;;;0.60;;
61685;SDS011;47592;45.904;8.978;2024-02-23T08:16:08;2.13;;;0.73;;
61685;SDS011;47592;45.904;8.978;2024-02-23T08:18:33;2.45;;;0.68;;
61685;SDS011;47592;45.904;8.978;2024-02-23T08:20:59;3.20;;;0.80;;
61685;SDS011;47592;45.904;8.978;2024-02-23T08:23:27;5.85;;;1.42;;
61685;SDS011;47592;45.904;8.978;2024-02-23T08:25:57;3.13;;;0.90;;
61685;SDS011;47592;45.904;8.978;2024-02-23T08:28:23;3.53;;;0.50;;
61685;SDS011;47592;45.904;8.978;2024-02-23T08:30:51;1.75;;;0.63;;
61685;SDS011;47592;45.904;8.978;2024-02-23T08:33:18;2.78;;;0.70;;
61685;SDS011;47592;45.904;8.978;2024-02-23T08:35:43;2.63;;;0.63;;
61685;SDS011;47592;45.904;8.978;2024-02-23T08:38:11;1.80;;;0.60;;
61685;SDS011;47592;45.904;8.978;2024-02-23T08:40:36;2.05;;;0.60;;
61685;SDS011;47592;45.904;8.978;2024-02-23T08:43:02;1.23;;;0.50;;
61685;SDS011;47592;45.904;8.978;2024-02-23T08:45:28;1.92;;;0.75;;
61685;SDS011;47592;45.904;8.978;2024-02-23T08:47:53;2.10;;;0.60;;
61685;SDS011;47592;45.904;8.978;2024-02-23T08:50:18;2.78;;;0.80;;
61685;SDS011;47592;45.904;8.978;2024-02-23T08:52:44;2.72;;;1.40;;
61685;SDS011;47592;45.904;8.978;2024-02-23T08:55:09;2.65;;;0.80;;
61685;SDS011;47592;45.904;8.978;2024-02-23T08:57:37;1.63;;;0.60;;
61685;SDS011;47592;45.904;8.978;2024-02-23T09:00:03;2.17;;;0.70;;
61685;SDS011;47592;45.904;8.978;2024-02-23T09:02:31;3.92;;;1.20;;
61685;SDS011;47592;45.904;8.978;2024-02-23T09:04:57;4.57;;;1.27;;
61685;SDS011;47592;45.904;8.978;2024-02-23T09:07:23;4.32;;;1.00;;
61685;SDS011;47592;45.904;8.978;2024-02-23T09:09:49;2.72;;;0.80;;
61685;SDS011;47592;45.904;8.978;2024-02-23T09:12:15;4.25;;;1.50;;
61685;SDS011;47592;45.904;8.978;2024-02-23T09:14:41;5.22;;;1.80;;
61685;SDS011;47592;45.904;8.978;2024-02-23T09:17:08;6.22;;;2.47;;
61685;SDS011;47592;45.904;8.978;2024-02-23T09:19:35;5.65;;;1.90;;
61685;SDS011;47592;45.904;8.978;2024-02-23T09:22:01;4.40;;;1.48;;
61685;SDS011;47592;45.904;8.978;2024-02-23T09:24:27;3.35;;;0.82;;
61685;SDS011;47592;45.904;8.978;2024-02-23T09:26:52;3.35;;;0.80;;
61685;SDS011;47592;45.904;8.978;2024-02-23T09:29:18;2.25;;;0.60;;
61685;SDS011;47592;45.904;8.978;2024-02-23T09:31:43;2.17;;;0.75;;
61685;SDS011;47592;45.904;8.978;2024-02-23T09:34:08;2.17;;;0.70;;
61685;SDS011;47592;45.904;8.978;2024-02-23T09:36:36;2.15;;;0.77;;
61685;SDS011;47592;45.904;8.978;2024-02-23T09:39:04;2.25;;;0.73;;
61685;SDS011;47592;45.904;8.978;2024-02-23T09:41:29;2.28;;;0.80;;
61685;SDS011;47592;45.904;8.978;2024-02-23T09:43:56;2.83;;;1.00;;
61685;SDS011;47592;45.904;8.978;2024-02-23T09:46:23;2.35;;;0.70;;
61685;SDS011;47592;45.904;8.978;2024-02-23T09:48:49;6.30;;;1.00;;
61685;SDS011;47592;45.904;8.978;2024-02-23T09:51:15;4.10;;;1.23;;
61685;SDS011;47592;45.904;8.978;2024-02-23T09:53:41;5.47;;;1.33;;
61685;SDS011;47592;45.904;8.978;2024-02-23T09:56:08;4.25;;;1.02;;
61685;SDS011;47592;45.904;8.978;2024-02-23T09:58:34;4.15;;;1.05;;
61685;SDS011;47592;45.904;8.978;2024-02-23T10:01:03;2.97;;;1.00;;
61685;SDS011;47592;45.904;8.978;2024-02-23T10:03:29;3.22;;;0.90;;
61685;SDS011;47592;45.904;8.978;2024-02-23T10:05:58;2.95;;;1.00;;
61685;SDS011;47592;45.904;8.978;2024-02-23T10:08:24;3.00;;;1.10;;
61685;SDS011;47592;45.904;8.978;2024-02-23T10:10:50;2.92;;;0.95;;
61685;SDS011;47592;45.904;8.978;2024-02-23T10:13:19;3.10;;;1.20;;
61685;SDS011;47592;45.904;8.978;2024-02-23T10:15:51;3.47;;;1.10;;
61685;SDS011;47592;45.904;8.978;2024-02-23T10:18:17;3.85;;;1.00;;
61685;SDS011;47592;45.904;8.978;2024-02-23T10:20:45;2.80;;;1.00;;
61685;SDS011;47592;45.904;8.978;2024-02-23T10:23:12;3.20;;;1.23;;
61685;SDS011;47592;45.904;8.978;2024-02-23T10:25:38;3.13;;;1.10;;
61685;SDS011;47592;45.904;8.978;2024-02-23T10:28:06;2.90;;;1.10;;
61685;SDS011;47592;45.904;8.978;2024-02-23T10:30:32;2.55;;;0.90;;
61685;SDS011;47592;45.904;8.978;2024-02-23T10:32:58;4.25;;;1.45;;
61685;SDS011;47592;45.904;8.978;2024-02-23T10:35:25;3.83;;;1.42;;
61685;SDS011;47592;45.904;8.978;2024-02-23T10:37:52;4.97;;;1.60;;
61685;SDS011;47592;45.904;8.978;2024-02-23T10:40:19;3.90;;;1.33;;
61685;SDS011;47592;45.904;8.978;2024-02-23T10:42:46;7.35;;;2.85;;
61685;SDS011;47592;45.904;8.978;2024-02-23T10:45:20;8.38;;;3.67;;
61685;SDS011;47592;45.904;8.978;2024-02-23T10:47:49;7.22;;;3.13;;
61685;SDS011;47592;45.904;8.978;2024-02-23T10:50:20;6.38;;;2.50;;
61685;SDS011;47592;45.904;8.978;2024-02-23T10:52:49;5.22;;;2.22;;
61685;SDS011;47592;45.904;8.978;2024-02-23T10:55:20;4.85;;;1.83;;
61685;SDS011;47592;45.904;8.978;2024-02-23T10:57:49;4.28;;;2.00;;
61685;SDS011;47592;45.904;8.978;2024-02-23T11:00:18;4.03;;;1.73;;
61685;SDS011;47592;45.904;8.978;2024-02-23T11:02:48;4.10;;;1.60;;
61685;SDS011;47592;45.904;8.978;2024-02-23T11:05:15;4.40;;;1.27;;
61685;SDS011;47592;45.904;8.978;2024-02-23T11:07:41;2.78;;;1.10;;
61685;SDS011;47592;45.904;8.978;2024-02-23T11:10:07;2.90;;;0.93;;
61685;SDS011;47592;45.904;8.978;2024-02-23T11:12:34;2.58;;;0.80;;
61685;SDS011;47592;45.904;8.978;2024-02-23T11:15:04;1.42;;;0.45;;
61685;SDS011;47592;45.904;8.978;2024-02-23T11:17:30;1.30;;;0.50;;
61685;SDS011;47592;45.904;8.978;2024-02-23T11:19:58;1.13;;;0.47;;
61685;SDS011;47592;45.904;8.978;2024-02-23T11:22:32;2.35;;;0.70;;
61685;SDS011;47592;45.904;8.978;2024-02-23T11:25:03;2.92;;;1.00;;
61685;SDS011;47592;45.904;8.978;2024-02-23T11:27:30;3.10;;;0.90;;
61685;SDS011;47592;45.904;8.978;2024-02-23T11:30:06;2.63;;;0.90;;
61685;SDS011;47592;45.904;8.978;2024-02-23T11:32:46;3.65;;;0.80;;
61685;SDS011;47592;45.904;8.978;2024-02-23T11:35:19;2.60;;;1.00;;
61685;SDS011;47592;45.904;8.978;2024-02-23T11:37:54;2.97;;;0.80;;
61685;SDS011;47592;45.904;8.978;2024-02-23T11:40:27;2.10;;;0.70;;
61685;SDS011;47592;45.904;8.978;2024-02-23T11:42:56;2.22;;;0.80;;
61685;SDS011;47592;45.904;8.978;2024-02-23T11:45:25;2.58;;;1.00;;
61685;SDS011;47592;45.904;8.978;2024-02-23T11:47:51;4.10;;;1.30;;
61685;SDS011;47592;45.904;8.978;2024-02-23T11:50:19;3.63;;;1.50;;
61685;SDS011;47592;45.904;8.978;2024-02-23T11:52:47;3.60;;;1.20;;
61685;SDS011;47592;45.904;8.978;2024-02-23T11:55:12;3.47;;;1.30;;
61685;SDS011;47592;45.904;8.978;2024-02-23T11:57:47;5.53;;;1.52;;
61685;SDS011;47592;45.904;8.978;2024-02-23T12:00:13;3.45;;;1.38;;
61685;SDS011;47592;45.904;8.978;2024-02-23T12:02:43;4.00;;;1.40;;
61685;SDS011;47592;45.904;8.978;2024-02-23T12:05:13;5.68;;;2.17;;
61685;SDS011;47592;45.904;8.978;2024-02-23T12:07:40;5.60;;;1.50;;
61685;SDS011;47592;45.904;8.978;2024-02-23T12:10:06;2.83;;;1.00;;
61685;SDS011;47592;45.904;8.978;2024-02-23T12:12:35;3.92;;;1.70;;
61685;SDS011;47592;45.904;8.978;2024-02-23T12:15:00;5.22;;;1.63;;
61685;SDS011;47592;45.904;8.978;2024-02-23T12:17:26;3.92;;;1.42;;
61685;SDS011;47592;45.904;8.978;2024-02-23T12:19:58;4.78;;;1.60;;
61685;SDS011;47592;45.904;8.978;2024-02-23T12:22:24;4.25;;;1.63;;
61685;SDS011;47592;45.904;8.978;2024-02-23T12:24:53;5.45;;;1.30;;
61685;SDS011;47592;45.904;8.978;2024-02-23T12:27:18;4.57;;;1.80;;
61685;SDS011;47592;45.904;8.978;2024-02-23T12:29:53;3.35;;;1.40;;
61685;SDS011;47592;45.904;8.978;2024-02-23T12:32:20;3.38;;;1.30;;
61685;SDS011;47592;45.904;8.978;2024-02-23T12:34:46;4.65;;;1.80;;
61685;SDS011;47592;45.904;8.978;2024-02-23T12:37:15;3.85;;;1.60;;
61685;SDS011;47592;45.904;8.978;2024-02-23T12:42:07;4.03;;;1.30;;
61685;SDS011;47592;45.904;8.978;2024-02-23T12:44:35;5.95;;;1.77;;
61685;SDS011;47592;45.904;8.978;2024-02-23T12:47:01;4.82;;;1.50;;
61685;SDS011;47592;45.904;8.978;2024-02-23T12:49:29;3.67;;;1.13;;
61685;SDS011;47592;45.904;8.978;2024-02-23T12:51:57;4.63;;;1.60;;
61685;SDS011;47592;45.904;8.978;2024-02-23T12:54:22;3.40;;;1.25;;
61685;SDS011;47592;45.904;8.978;2024-02-23T12:56:48;5.68;;;2.22;;
61685;SDS011;47592;45.904;8.978;2024-02-23T13:00:50;4.78;;;2.10;;
61685;SDS011;47592;45.904;8.978;2024-02-23T13:03:18;3.72;;;1.50;;
61685;SDS011;47592;45.904;8.978;2024-02-23T13:05:43;4.28;;;1.70;;
61685;SDS011;47592;45.904;8.978;2024-02-23T13:08:08;3.80;;;1.48;;
61685;SDS011;47592;45.904;8.978;2024-02-23T13:10:34;4.15;;;1.25;;
61685;SDS011;47592;45.904;8.978;2024-02-23T13:13:00;3.03;;;1.30;;
61685;SDS011;47592;45.904;8.978;2024-02-23T13:15:25;2.65;;;0.90;;
61685;SDS011;47592;45.904;8.978;2024-02-23T13:17:53;3.67;;;1.33;;
61685;SDS011;47592;45.904;8.978;2024-02-23T13:20:22;4.32;;;1.77;;
61685;SDS011;47592;45.904;8.978;2024-02-23T13:22:47;4.18;;;1.40;;
61685;SDS011;47592;45.904;8.978;2024-02-23T13:25:15;3.30;;;1.20;;
61685;SDS011;47592;45.904;8.978;2024-02-23T13:27:43;3.72;;;1.27;;
61685;SDS011;47592;45.904;8.978;2024-02-23T13:30:08;3.70;;;1.40;;
61685;SDS011;47592;45.904;8.978;2024-02-23T13:32:34;2.65;;;1.00;;
61685;SDS011;47592;45.904;8.978;2024-02-23T13:34:59;3.13;;;1.10;;
61685;SDS011;47592;45.904;8.978;2024-02-23T13:37:29;3.30;;;1.17;;
61685;SDS011;47592;45.904;8.978;2024-02-23T13:39:54;3.08;;;1.10;;
61685;SDS011;47592;45.904;8.978;2024-02-23T13:42:20;2.45;;;0.98;;
61685;SDS011;47592;45.904;8.978;2024-02-23T13:44:45;3.38;;;1.00;;
61685;SDS011;47592;45.904;8.978;2024-02-23T13:47:11;3.05;;;1.10;;
61685;SDS011;47592;45.904;8.978;2024-02-23T13:49:37;4.32;;;1.45;;
61685;SDS011;47592;45.904;8.978;2024-02-23T13:52:02;2.80;;;1.00;;
61685;SDS011;47592;45.904;8.978;2024-02-23T13:54:30;3.13;;;1.05;;
61685;SDS011;47592;45.904;8.978;2024-02-23T13:56:56;3.00;;;1.00;;
61685;SDS011;47592;45.904;8.978;2024-02-23T13:59:24;3.30;;;1.00;;
61685;SDS011;47592;45.904;8.978;2024-02-23T14:01:51;2.33;;;0.80;;
61685;SDS011;47592;45.904;8.978;2024-02-23T14:04:19;3.70;;;1.10;;
61685;SDS011;47592;45.904;8.978;2024-02-23T14:06:44;3.28;;;1.05;;
61685;SDS011;47592;45.904;8.978;2024-02-23T14:09:10;3.65;;;1.02;;
61685;SDS011;47592;45.904;8.978;2024-02-23T14:11:37;3.10;;;0.90;;
61685;SDS011;47592;45.904;8.978;2024-02-23T14:14:04;3.53;;;1.00;;
61685;SDS011;47592;45.904;8.978;2024-02-23T14:16:30;2.63;;;1.00;;
61685;SDS011;47592;45.904;8.978;2024-02-23T14:18:55;2.72;;;0.90;;
61685;SDS011;47592;45.904;8.978;2024-02-23T14:21:21;2.83;;;0.98;;
61685;SDS011;47592;45.904;8.978;2024-02-23T14:23:50;2.80;;;1.00;;
61685;SDS011;47592;45.904;8.978;2024-02-23T14:26:18;2.10;;;0.77;;
61685;SDS011;47592;45.904;8.978;2024-02-23T14:28:43;3.30;;;1.20;;
61685;SDS011;47592;45.904;8.978;2024-02-23T14:31:09;3.65;;;1.10;;
61685;SDS011;47592;45.904;8.978;2024-02-23T14:33:34;2.72;;;1.02;;
61685;SDS011;47592;45.904;8.978;2024-02-23T14:36:02;3.03;;;1.00;;
61685;SDS011;47592;45.904;8.978;2024-02-23T14:38:30;2.95;;;0.88;;
61685;SDS011;47592;45.904;8.978;2024-02-23T14:40:58;3.22;;;0.90;;
61685;SDS011;47592;45.904;8.978;2024-02-23T14:43:24;2.85;;;1.10;;
61685;SDS011;47592;45.904;8.978;2024-02-23T14:45:51;3.30;;;1.20;;
61685;SDS011;47592;45.904;8.978;2024-02-23T14:48:19;3.15;;;1.05;;
61685;SDS011;47592;45.904;8.978;2024-02-23T14:50:44;2.75;;;1.02;;
61685;SDS011;47592;45.904;8.978;2024-02-23T14:53:10;2.65;;;0.90;;